Time;durP1;ratioP1;P1;durP2;ratioP2;P2;SDS_P1;SDS_P2;PMS_P1;PMS_P2;Temp;Humidity;BMP_temperature;BMP_pressure;BME280_temperature;BME280_humidity;BME280_pressure;Samples;Min_cycle;Max_cycle;Signal;HPM_P1;HPM_P2
2022/04/30 00:01:01;;;;;;;10.77;9.93;;;;;;;8.10;100.00;96945.91;5035761;28;20463;-75
2022/04/30 00:03:28;;;;;;;9.80;9.00;;;;;;;8.24;100.00;96960.63;5053860;28;20432;-75
2022/04/30 00:05:55;;;;;;;10.37;8.90;;;;;;;8.16;100.00;96955.28;5036114;28;20439;-75
2022/04/30 00:08:23;;;;;;;10.50;9.40;;;;;;;8.12;100.00;96965.59;5053719;28;20435;-75
2022/04/30 00:10:52;;;;;;;10.27;9.27;;;;;;;8.07;100.00;96965.72;5035832;28;20617;-75
2022/04/30 00:13:18;;;;;;;11.23;10.13;;;;;;;8.04;100.00;96936.56;5035734;28;20497;-75
2022/04/30 00:15:45;;;;;;;12.23;8.83;;;;;;;7.97;100.00;96929.81;5035485;28;21027;-75
2022/04/30 00:18:12;;;;;;;11.90;9.30;;;;;;;8.04;100.00;96939.97;5019381;28;20921;-75
2022/04/30 00:20:45;;;;;;;13.43;10.30;;;;;;;8.19;100.00;96963.38;5035374;28;20559;-76
2022/04/30 00:23:19;;;;;;;10.83;9.83;;;;;;;7.86;100.00;96949.50;5035407;28;20440;-75
2022/04/30 00:25:51;;;;;;;10.40;9.57;;;;;;;7.70;100.00;96946.41;5035468;28;20473;-75
2022/04/30 00:28:20;;;;;;;10.63;9.63;;;;;;;7.67;100.00;96943.56;5035433;28;20949;-75
2022/04/30 00:30:47;;;;;;;11.07;9.80;;;;;;;7.66;100.00;96939.38;5051832;28;20486;-75
2022/04/30 00:33:15;;;;;;;12.00;10.80;;;;;;;7.65;100.00;96933.34;5035365;28;20497;-75
2022/04/30 00:35:42;;;;;;;10.23;9.43;;;;;;;7.56;100.00;96898.25;5035285;28;20531;-75
2022/04/30 00:38:09;;;;;;;10.27;9.30;;;;;;;7.85;100.00;96926.13;5035262;28;20461;-75
2022/04/30 00:40:36;;;;;;;10.27;9.50;;;;;;;7.70;100.00;96883.22;5018554;28;20452;-75
2022/04/30 00:43:03;;;;;;;10.53;9.20;;;;;;;7.61;100.00;96884.19;5034968;28;20539;-75
2022/04/30 00:45:30;;;;;;;10.17;9.20;;;;;;;7.67;100.00;96883.81;5053027;28;20447;-75
2022/04/30 00:47:57;;;;;;;11.80;10.70;;;;;;;7.73;100.00;96887.13;5052813;28;20466;-75
2022/04/30 00:50:27;;;;;;;10.83;9.80;;;;;;;7.80;100.00;96884.13;5035142;28;20470;-75
2022/04/30 00:52:56;;;;;;;10.77;9.77;;;;;;;8.08;100.00;96929.63;5041295;28;20454;-75
2022/04/30 00:55:27;;;;;;;10.40;9.50;;;;;;;7.91;100.00;96920.47;5035048;28;20576;-75
2022/04/30 00:58:00;;;;;;;9.90;9.10;;;;;;;7.90;100.00;96908.38;5034906;28;20478;-75
2022/04/30 01:00:29;;;;;;;10.07;9.27;;;;;;;8.04;100.00;96913.63;5035220;28;20531;-75
2022/04/30 01:03:06;;;;;;;12.40;10.00;;;;;;;8.12;100.00;96930.59;5034803;28;20555;-74
2022/04/30 01:05:51;;;;;;;10.57;9.50;;;;;;;7.85;100.00;96894.53;5037606;28;20424;-75
2022/04/30 01:08:19;;;;;;;11.73;9.30;;;;;;;7.83;100.00;96920.38;5052585;28;20462;-75
2022/04/30 01:10:46;;;;;;;12.03;10.93;;;;;;;7.80;100.00;96927.00;5034548;28;20464;-75
2022/04/30 01:13:13;;;;;;;10.30;9.50;;;;;;;7.49;100.00;96887.34;5034616;28;21036;-75
2022/04/30 01:15:41;;;;;;;12.83;11.63;;;;;;;7.66;100.00;96924.38;5034658;28;20475;-75
2022/04/30 01:18:08;;;;;;;14.43;13.13;;;;;;;7.60;100.00;96922.13;5035051;28;20436;-75
2022/04/30 01:20:35;;;;;;;12.20;11.00;;;;;;;7.59;100.00;96908.19;5034555;28;20574;-75
2022/04/30 01:23:04;;;;;;;11.70;10.50;;;;;;;7.65;100.00;96932.56;5036436;28;20507;-75
2022/04/30 01:25:32;;;;;;;10.60;9.60;;;;;;;7.74;100.00;96922.13;5035391;28;20959;-75
2022/04/30 01:27:59;;;;;;;12.57;9.83;;;;;;;7.78;100.00;96913.38;5036500;28;20512;-75
2022/04/30 01:30:28;;;;;;;10.63;9.63;;;;;;;7.52;100.00;96891.22;5054999;28;20483;-75
2022/04/30 01:38:27;;;;;;;9.77;8.90;;;;;;;7.26;100.00;96902.22;5034488;28;20558;-75
2022/04/30 01:40:54;;;;;;;11.27;10.13;;;;;;;7.24;100.00;96899.09;5034430;28;20521;-75
2022/04/30 01:43:21;;;;;;;11.43;9.23;;;;;;;6.97;100.00;96888.53;5051131;28;20439;-75
2022/04/30 01:45:50;;;;;;;9.67;8.93;;;;;;;6.49;100.00;96823.06;5034337;28;21058;-75
2022/04/30 01:48:17;;;;;;;9.73;8.80;;;;;;;7.05;100.00;96880.75;5052467;28;20436;-75
2022/04/30 01:50:44;;;;;;;9.67;8.70;;;;;;;6.98;100.00;96901.38;5034492;28;20491;-75
2022/04/30 01:53:11;;;;;;;10.10;9.10;;;;;;;7.09;100.00;96899.38;5052701;28;20428;-75
2022/04/30 01:55:38;;;;;;;10.17;9.20;;;;;;;7.11;100.00;96900.63;5051949;28;20948;-75
2022/04/30 01:58:11;;;;;;;10.97;9.97;;;;;;;7.17;100.00;96898.69;5034297;28;20448;-75
2022/04/30 02:00:37;;;;;;;11.73;8.80;;;;;;;7.23;100.00;96894.91;5017543;28;20902;-75
2022/04/30 02:03:07;;;;;;;11.80;9.70;;;;;;;7.20;100.00;96895.47;5034481;28;20480;-75
2022/04/30 02:05:37;;;;;;;9.50;8.63;;;;;;;7.22;100.00;96898.63;5034768;28;20454;-75
2022/04/30 02:08:14;;;;;;;10.40;9.50;;;;;;;7.18;100.00;96892.34;5037711;28;20451;-75
2022/04/30 02:10:42;;;;;;;11.17;10.13;;;;;;;6.93;100.00;96869.91;5058269;28;20452;-75
2022/04/30 02:13:10;;;;;;;10.90;9.90;;;;;;;7.02;100.00;96870.03;5037807;28;20428;-75
2022/04/30 02:15:40;;;;;;;12.47;11.27;;;;;;;6.75;100.00;96847.88;5057717;28;20458;-75
2022/04/30 02:18:14;;;;;;;12.10;10.90;;;;;;;7.10;100.00;96880.66;5038272;28;20951;-75
2022/04/30 02:20:48;;;;;;;10.40;9.47;;;;;;;6.94;100.00;96850.44;5056687;28;20473;-75
2022/04/30 02:23:17;;;;;;;11.10;9.80;;;;;;;7.11;100.00;96878.81;5019625;28;20461;-75
2022/04/30 02:25:45;;;;;;;9.43;8.63;;;;;;;6.87;100.00;96838.75;5034416;28;20443;-76
2022/04/30 02:28:11;;;;;;;12.93;10.00;;;;;;;6.97;100.00;96876.16;5022713;28;20527;-75
2022/04/30 02:30:38;;;;;;;10.07;9.23;;;;;;;6.84;100.00;96841.97;5030795;28;20537;-75
2022/04/30 02:33:10;;;;;;;10.30;9.50;;;;;;;7.03;100.00;96874.22;5030357;28;20535;-75
2022/04/30 02:35:39;;;;;;;9.57;8.73;;;;;;;7.24;100.00;96870.19;5013757;28;21012;-75
2022/04/30 02:38:10;;;;;;;10.70;9.80;;;;;;;6.63;100.00;96802.88;5029837;28;20499;-75
2022/04/30 02:40:39;;;;;;;10.47;9.37;;;;;;;6.64;100.00;96869.34;5050014;28;21022;-75
2022/04/30 02:43:10;;;;;;;10.13;9.13;;;;;;;6.57;100.00;96853.97;5033276;28;20944;-75
2022/04/30 02:45:38;;;;;;;10.60;9.67;;;;;;;6.86;100.00;96861.63;5033735;28;20451;-75
2022/04/30 02:48:06;;;;;;;11.27;9.67;;;;;;;6.78;100.00;96867.53;5032977;28;20442;-75
2022/04/30 02:50:34;;;;;;;11.20;10.00;;;;;;;6.53;100.00;96839.81;5016575;28;20463;-75
2022/04/30 02:53:02;;;;;;;11.73;10.63;;;;;;;6.49;100.00;96871.13;5050998;28;20435;-75
2022/04/30 02:55:28;;;;;;;10.40;9.60;;;;;;;6.52;100.00;96869.78;5033363;28;20436;-75
2022/04/30 03:00:44;;;;;;;10.20;9.33;;;;;;;6.52;100.00;96857.44;5033029;28;20486;-75
2022/04/30 03:03:33;;;;;;;9.27;8.33;;;;;;;6.50;100.00;96843.03;5023091;28;20439;-75
2022/04/30 03:06:01;;;;;;;11.27;10.17;;;;;;;6.52;100.00;96839.03;5050801;28;20435;-75
2022/04/30 03:08:27;;;;;;;9.37;8.57;;;;;;;6.59;100.00;96830.03;5033057;28;20426;-75
2022/04/30 03:10:56;;;;;;;11.00;9.80;;;;;;;6.79;100.00;96840.19;5032875;28;20515;-75
2022/04/30 03:13:24;;;;;;;10.27;9.47;;;;;;;6.80;100.00;96832.00;5036365;28;20785;-75
2022/04/30 03:15:55;;;;;;;11.20;10.10;;;;;;;6.95;100.00;96852.03;5036497;28;20481;-75
2022/04/30 03:23:54;;;;;;;12.10;9.50;;;;;;;6.32;100.00;96817.56;5036510;28;20471;-75
2022/04/30 03:26:21;;;;;;;10.37;9.23;;;;;;;6.43;100.00;96819.75;5036558;28;20467;-75
2022/04/30 03:28:47;;;;;;;10.23;9.23;;;;;;;6.20;100.00;96803.03;5036755;28;20470;-75
2022/04/30 03:31:16;;;;;;;11.13;9.10;;;;;;;6.46;100.00;96839.41;5054333;28;20505;-75
2022/04/30 03:33:44;;;;;;;11.20;10.03;;;;;;;6.30;100.00;96794.22;5036599;28;20471;-75
2022/04/30 03:36:15;;;;;;;11.40;10.37;;;;;;;6.37;100.00;96807.75;5036572;28;20522;-75
2022/04/30 03:38:42;;;;;;;11.77;10.57;;;;;;;6.31;100.00;96795.00;5036378;28;20949;-75
2022/04/30 03:41:09;;;;;;;10.03;9.13;;;;;;;6.70;100.00;96824.31;5045971;28;20462;-75
2022/04/30 03:43:36;;;;;;;11.07;10.07;;;;;;;6.77;100.00;96829.19;5036601;28;20439;-75
2022/04/30 03:46:05;;;;;;;10.47;9.47;;;;;;;6.89;100.00;96828.72;5037174;28;20440;-75
2022/04/30 03:48:32;;;;;;;11.13;9.97;;;;;;;6.75;100.00;96832.09;5053508;28;20443;-75
2022/04/30 03:50:59;;;;;;;10.63;9.60;;;;;;;6.64;100.00;96824.69;5036591;28;20499;-75
2022/04/30 03:53:26;;;;;;;10.43;9.60;;;;;;;6.58;100.00;96823.22;5036155;28;20465;-75
2022/04/30 03:55:53;;;;;;;10.83;9.83;;;;;;;6.56;100.00;96826.13;5036525;28;20438;-75
2022/04/30 03:58:22;;;;;;;10.30;9.30;;;;;;;6.36;100.00;96814.09;5053753;28;20483;-75
2022/04/30 04:00:49;;;;;;;9.67;8.80;;;;;;;6.47;100.00;96818.13;5035721;28;21129;-75
2022/04/30 04:03:15;;;;;;;10.97;9.87;;;;;;;6.56;100.00;96822.72;5035878;28;20472;-75
2022/04/30 04:05:42;;;;;;;12.93;11.10;;;;;;;6.71;100.00;96823.25;5036316;28;20522;-75
2022/04/30 04:08:12;;;;;;;11.30;9.70;;;;;;;6.52;100.00;96798.84;5053576;28;20955;-75
2022/04/30 04:10:41;;;;;;;16.20;9.50;;;;;;;6.47;100.00;96804.22;5035809;28;20463;-75
2022/04/30 04:18:38;;;;;;;10.00;9.10;;;;;;;6.54;100.00;96794.09;5035526;28;20519;-75
2022/04/30 04:21:06;;;;;;;11.20;10.00;;;;;;;6.32;100.00;96778.19;5015623;28;20476;-75
2022/04/30 04:25:58;;;;;;;10.60;9.70;;;;;;;6.70;100.00;96831.41;5028096;28;20518;-75
2022/04/30 04:26:20;;;;;;;12.60;10.50;;;;;;;6.22;100.00;96752.88;5053499;28;20438;-75
2022/04/30 04:28:47;;;;;;;10.43;9.40;;;;;;;6.49;100.00;96812.56;5035830;28;20420;-75
2022/04/30 04:31:14;;;;;;;10.87;9.77;;;;;;;6.29;100.00;96803.19;5053235;28;20792;-74
2022/04/30 04:33:41;;;;;;;12.40;9.90;;;;;;;6.20;100.00;96770.75;5035215;28;20853;-74
2022/04/30 04:36:07;;;;;;;11.23;10.10;;;;;;;6.59;100.00;96824.78;5018809;28;20973;-74
2022/04/30 04:38:35;;;;;;;11.23;10.27;;;;;;;6.62;100.00;96832.06;5053246;28;20442;-74
2022/04/30 04:41:01;;;;;;;12.00;10.80;;;;;;;6.22;100.00;96802.75;5052875;28;20482;-75
2022/04/30 04:43:28;;;;;;;11.03;9.80;;;;;;;6.47;100.00;96828.63;5035530;28;20890;-74
2022/04/30 04:45:54;;;;;;;12.57;11.47;;;;;;;6.24;100.00;96816.38;5019990;28;20467;-74
2022/04/30 04:48:21;;;;;;;10.43;8.73;;;;;;;6.28;100.00;96816.56;5037410;28;20436;-74
2022/04/30 04:50:48;;;;;;;10.67;9.73;;;;;;;5.96;100.00;96797.09;5058062;28;20467;-74
2022/04/30 04:53:15;;;;;;;10.87;9.63;;;;;;;6.22;100.00;96787.78;5036428;28;20535;-74
2022/04/30 04:55:43;;;;;;;12.20;10.90;;;;;;;6.69;100.00;96827.25;5035026;28;20959;-74
2022/04/30 04:58:09;;;;;;;11.33;10.43;;;;;;;6.56;100.00;96810.38;5052861;28;20463;-76
2022/04/30 05:00:36;;;;;;;11.33;9.27;;;;;;;6.69;100.00;96822.75;5034849;28;20474;-75
2022/04/30 05:03:03;;;;;;;11.67;10.57;;;;;;;6.69;100.00;96793.84;5035059;28;20535;-75
2022/04/30 05:05:30;;;;;;;12.57;10.90;;;;;;;6.89;100.00;96826.09;5035183;28;20447;-74
2022/04/30 05:07:56;;;;;;;13.77;10.70;;;;;;;6.84;100.00;96815.69;5052485;28;20459;-74
2022/04/30 05:10:23;;;;;;;12.27;11.17;;;;;;;6.75;100.00;96808.47;5034682;28;20933;-74
2022/04/30 05:12:50;;;;;;;15.70;13.57;;;;;;;6.64;100.00;96822.06;5034665;28;20557;-74
2022/04/30 05:15:16;;;;;;;17.33;15.63;;;;;;;6.51;100.00;96832.22;5034727;28;20857;-74
2022/04/30 05:17:43;;;;;;;15.47;14.00;;;;;;;6.52;100.00;96798.84;5034477;28;20478;-74
2022/04/30 05:20:10;;;;;;;13.63;12.43;;;;;;;6.63;100.00;96821.28;5033997;28;20998;-74
2022/04/30 05:22:57;;;;;;;11.13;9.27;;;;;;;6.53;100.00;96832.72;5034320;28;20467;-74
2022/04/30 05:25:23;;;;;;;12.60;11.33;;;;;;;6.43;100.00;96795.34;5034340;28;20471;-74
2022/04/30 05:27:50;;;;;;;11.13;10.23;;;;;;;6.77;100.00;96829.19;5034312;28;20527;-74
2022/04/30 05:30:17;;;;;;;11.67;10.53;;;;;;;6.84;100.00;96823.56;5035232;28;21166;-74
2022/04/30 05:32:43;;;;;;;11.40;10.30;;;;;;;6.94;100.00;96811.00;5035332;28;20540;-75
2022/04/30 05:35:10;;;;;;;11.80;10.70;;;;;;;6.83;100.00;96801.75;5034594;28;20540;-75
2022/04/30 05:37:37;;;;;;;10.23;9.33;;;;;;;6.94;100.00;96795.22;5034594;28;20961;-74
2022/04/30 05:40:04;;;;;;;16.33;11.20;;;;;;;7.35;100.00;96833.94;5034329;28;20472;-74
2022/04/30 05:42:30;;;;;;;11.33;10.23;;;;;;;7.25;100.00;96815.72;5034626;28;20489;-74
2022/04/30 05:44:58;;;;;;;12.47;11.27;;;;;;;7.48;100.00;96838.44;5034963;28;20838;-74
2022/04/30 05:47:25;;;;;;;12.37;10.87;;;;;;;7.46;100.00;96806.34;5052722;28;20547;-74
2022/04/30 05:49:52;;;;;;;14.20;12.73;;;;;;;7.53;100.00;96819.91;5034103;28;20460;-74
2022/04/30 05:52:21;;;;;;;13.00;11.93;;;;;;;7.55;100.00;96817.75;5034564;28;20474;-74
2022/04/30 05:54:49;;;;;;;13.10;11.80;;;;;;;7.84;100.00;96838.47;5033773;28;20439;-74
2022/04/30 05:57:16;;;;;;;11.63;10.40;;;;;;;7.50;100.00;96791.56;5017642;28;20444;-74
2022/04/30 05:59:42;;;;;;;11.63;10.53;;;;;;;7.85;100.00;96826.09;5033630;28;20567;-74
2022/04/30 06:02:09;;;;;;;13.67;11.30;;;;;;;7.81;100.00;96831.16;5033964;28;20924;-74
2022/04/30 06:04:36;;;;;;;12.70;11.63;;;;;;;7.72;100.00;96798.72;5034186;28;20920;-75
2022/04/30 06:07:03;;;;;;;12.17;11.03;;;;;;;7.71;100.00;96823.47;5033885;28;20530;-74
2022/04/30 06:09:29;;;;;;;12.40;11.23;;;;;;;8.21;100.00;96847.16;5033631;28;20463;-74
2022/04/30 06:11:56;;;;;;;12.47;11.37;;;;;;;8.36;100.00;96856.59;5033553;28;20544;-74
2022/04/30 06:14:23;;;;;;;12.83;11.63;;;;;;;8.29;100.00;96855.16;5033726;28;20530;-74
2022/04/30 06:16:49;;;;;;;14.47;12.33;;;;;;;8.19;100.00;96828.25;5033821;28;20463;-75
2022/04/30 06:19:16;;;;;;;12.83;11.53;;;;;;;8.58;100.00;96864.53;5051196;28;20859;-74
2022/04/30 06:21:45;;;;;;;14.53;13.13;;;;;;;8.55;100.00;96850.09;5050157;28;20536;-74
2022/04/30 06:24:12;;;;;;;12.30;11.10;;;;;;;8.73;100.00;96860.75;5051288;28;21053;-74
2022/04/30 06:26:38;;;;;;;17.23;12.60;;;;;;;8.73;100.00;96842.31;5022543;28;20523;-74
2022/04/30 06:29:05;;;;;;;12.80;11.60;;;;;;;9.12;100.00;96874.00;5029596;28;21044;-74
2022/04/30 06:31:32;;;;;;;13.33;12.13;;;;;;;9.09;100.00;96858.81;5024605;28;20443;-74
2022/04/30 06:33:59;;;;;;;21.13;16.47;;;;;;;9.46;100.00;96877.88;5051209;28;20518;-75
2022/04/30 06:36:25;;;;;;;17.13;13.67;;;;;;;9.51;100.00;96869.84;5033394;28;20534;-75
2022/04/30 06:38:52;;;;;;;13.67;12.40;;;;;;;9.39;100.00;96849.31;5033187;28;20538;-74
2022/04/30 06:41:21;;;;;;;13.63;11.33;;;;;;;9.60;100.00;96875.13;5033534;28;20564;-75
2022/04/30 06:43:50;;;;;;;13.33;12.03;;;;;;;9.71;100.00;96879.84;5051128;28;20458;-75
2022/04/30 06:46:17;;;;;;;12.33;11.00;;;;;;;9.86;100.00;96849.56;5031801;28;20439;-75
2022/04/30 06:48:44;;;;;;;11.70;10.77;;;;;;;10.06;100.00;96858.78;5040971;28;20532;-75
2022/04/30 06:51:11;;;;;;;11.80;10.70;;;;;;;10.27;100.00;96866.91;5053624;28;20820;-75
2022/04/30 06:59:12;;;;;;;12.63;11.43;;;;;;;11.46;100.00;96880.25;5053817;28;20494;-75
2022/04/30 07:04:10;;;;;;;12.43;11.13;;;;;;;11.83;100.00;96878.69;5036898;28;20502;-74
2022/04/30 07:06:38;;;;;;;10.50;9.50;;;;;;;12.16;100.00;96898.50;5037537;28;20435;-74
2022/04/30 07:09:06;;;;;;;9.90;9.10;;;;;;;12.67;99.70;96897.31;5018729;28;20482;-74
2022/04/30 07:11:34;;;;;;;13.20;9.70;;;;;;;12.77;91.82;96904.09;5036929;28;20479;-75
2022/04/30 07:14:00;;;;;;;9.80;8.70;;;;;;;12.51;85.56;96883.88;5036841;28;20464;-75
2022/04/30 07:16:27;;;;;;;11.33;9.40;;;;;;;12.63;84.60;96880.50;5053289;28;20862;-75
2022/04/30 07:18:54;;;;;;;9.90;8.70;;;;;;;12.83;83.59;96874.41;5036976;28;21055;-75
2022/04/30 07:21:21;;;;;;;12.07;10.03;;;;;;;12.66;80.37;96863.91;5036743;28;20469;-74
2022/04/30 07:23:48;;;;;;;11.07;9.97;;;;;;;12.33;79.59;96874.50;5054650;28;20468;-74
2022/04/30 07:26:16;;;;;;;11.47;9.50;;;;;;;12.23;80.61;96878.31;5020428;28;20460;-75
2022/04/30 07:28:43;;;;;;;12.57;9.07;;;;;;;12.16;79.49;96846.25;5036695;28;20433;-75
2022/04/30 07:31:09;;;;;;;9.93;8.80;;;;;;;12.73;77.83;96904.75;5020077;28;20457;-75
2022/04/30 07:33:36;;;;;;;10.67;8.63;;;;;;;12.99;77.71;96874.56;5036591;28;20452;-74
2022/04/30 07:36:26;;;;;;;16.40;11.43;;;;;;;12.99;78.07;96862.06;5036434;28;20486;-75
2022/04/30 07:38:55;;;;;;;9.77;8.87;;;;;;;13.46;76.13;96860.94;4953957;29;20559;-75
2022/04/30 07:41:21;;;;;;;10.57;8.93;;;;;;;13.96;73.32;96910.31;4934620;29;20475;-75
2022/04/30 07:43:48;;;;;;;10.37;9.27;;;;;;;13.79;75.32;96912.09;4937443;29;20562;-75
2022/04/30 07:46:15;;;;;;;12.23;9.93;;;;;;;13.39;74.70;96874.00;4937947;29;20449;-75
2022/04/30 07:48:42;;;;;;;9.30;8.57;;;;;;;13.75;73.50;96913.84;4950438;29;20448;-75
2022/04/30 07:51:14;;;;;;;10.20;9.20;;;;;;;13.66;76.09;96885.88;4931245;29;20549;-75
2022/04/30 07:53:44;;;;;;;10.57;9.57;;;;;;;13.84;75.36;96852.63;4953875;29;21029;-75
2022/04/30 07:56:12;;;;;;;9.43;8.53;;;;;;;14.24;71.03;96881.91;4953868;29;20465;-75
2022/04/30 07:58:39;;;;;;;9.73;8.80;;;;;;;14.25;72.77;96875.50;4952865;28;20489;-75
2022/04/30 08:01:06;;;;;;;9.77;8.90;;;;;;;14.25;71.97;96901.31;4953724;29;20466;-75
2022/04/30 08:03:33;;;;;;;8.47;7.67;;;;;;;14.57;72.07;96894.31;4953897;29;20484;-75
2022/04/30 08:06:01;;;;;;;8.23;7.47;;;;;;;14.83;69.63;96896.53;4939185;29;20473;-76
2022/04/30 08:08:28;;;;;;;8.80;8.00;;;;;;;14.76;67.46;96903.22;4972676;29;20445;-75
2022/04/30 08:10:54;;;;;;;9.13;8.30;;;;;;;15.14;67.19;96893.94;4948264;29;20819;-75
2022/04/30 08:13:21;;;;;;;12.60;8.30;;;;;;;14.53;67.09;96875.56;4953616;29;20503;-75
2022/04/30 08:15:48;;;;;;;8.10;7.23;;;;;;;14.88;67.05;96902.38;4993551;28;20439;-75
2022/04/30 08:18:15;;;;;;;9.63;7.93;;;;;;;14.86;65.62;96898.53;5054081;28;20420;-75
2022/04/30 08:20:41;;;;;;;9.17;8.37;;;;;;;14.49;65.91;96861.38;5035345;28;20563;-75
2022/04/30 08:23:08;;;;;;;8.13;7.33;;;;;;;14.46;66.51;96894.78;5036086;28;20439;-74
2022/04/30 08:25:36;;;;;;;9.30;7.70;;;;;;;14.49;66.28;96901.28;5035884;28;20520;-75
2022/04/30 08:28:03;;;;;;;11.27;8.37;;;;;;;14.19;67.39;96896.25;5019669;28;20501;-75
2022/04/30 08:30:32;;;;;;;9.53;7.80;;;;;;;14.36;66.20;96849.97;5027534;28;20457;-74
2022/04/30 08:32:59;;;;;;;10.83;8.17;;;;;;;14.73;64.83;96865.84;5059379;28;20458;-74
2022/04/30 08:35:27;;;;;;;10.17;8.03;;;;;;;14.56;65.67;96860.81;5040627;28;20429;-74
2022/04/30 08:38:07;;;;;;;8.30;7.50;;;;;;;14.96;65.18;96879.41;5022004;28;20441;-75
2022/04/30 08:40:35;;;;;;;8.63;7.80;;;;;;;14.30;65.65;96861.97;5035479;28;20469;-75
2022/04/30 08:43:10;;;;;;;9.07;8.27;;;;;;;14.44;67.32;96882.91;5042296;28;20455;-78
2022/04/30 08:45:39;;;;;;;8.63;7.70;;;;;;;14.82;65.77;96868.34;5044507;28;20491;-78
2022/04/30 08:48:11;;;;;;;10.33;8.70;;;;;;;14.81;63.68;96862.25;5056612;28;20535;-75
2022/04/30 08:50:43;;;;;;;7.00;6.40;;;;;;;15.78;63.92;96879.56;5053643;28;20437;-75
2022/04/30 08:53:10;;;;;;;9.50;8.70;;;;;;;15.62;62.08;96886.75;5053897;28;20421;-75
2022/04/30 08:55:37;;;;;;;9.50;8.60;;;;;;;15.40;61.53;96872.13;5035184;28;20588;-75
2022/04/30 08:58:04;;;;;;;8.37;7.53;;;;;;;16.04;60.91;96875.56;5035201;28;20434;-75
2022/04/30 09:00:38;;;;;;;8.53;7.50;;;;;;;15.84;60.80;96870.16;5052749;28;20903;-75
2022/04/30 09:03:05;;;;;;;8.13;7.33;;;;;;;15.52;59.75;96874.72;5036133;28;20448;-75
2022/04/30 09:05:34;;;;;;;9.30;8.30;;;;;;;16.03;59.58;96884.69;5035212;28;20510;-75
2022/04/30 09:08:01;;;;;;;9.70;7.63;;;;;;;16.49;57.47;96878.41;5034944;28;20460;-76
2022/04/30 09:10:31;;;;;;;8.00;7.30;;;;;;;16.38;58.19;96888.09;5052631;28;20456;-75
2022/04/30 09:13:05;;;;;;;8.93;8.03;;;;;;;15.73;58.03;96845.13;5052402;28;20514;-75
2022/04/30 09:15:33;;;;;;;9.27;8.20;;;;;;;15.78;59.31;96871.56;5034609;28;20441;-75
2022/04/30 09:18:01;;;;;;;8.50;7.60;;;;;;;16.00;56.08;96845.34;5034377;28;20429;-75
2022/04/30 09:20:30;;;;;;;10.17;7.63;;;;;;;15.86;55.76;96875.91;5034082;28;20534;-76
2022/04/30 09:22:57;;;;;;;10.10;7.90;;;;;;;16.01;56.25;96868.22;5034455;28;20433;-75
2022/04/30 09:25:24;;;;;;;7.60;6.90;;;;;;;16.05;56.02;96847.75;5034604;28;20460;-76
2022/04/30 09:28:01;;;;;;;10.53;6.37;;;;;;;16.31;55.22;96866.63;5034627;28;20437;-75
2022/04/30 09:30:29;;;;;;;8.97;8.10;;;;;;;15.77;56.09;96840.69;5034263;28;20555;-75
2022/04/30 09:33:06;;;;;;;9.47;8.67;;;;;;;16.32;56.50;96875.41;5034207;28;20671;-75
2022/04/30 09:38:24;;;;;;;8.60;7.90;;;;;;;16.30;56.50;96854.41;5034162;28;20479;-75
2022/04/30 09:40:57;;;;;;;9.23;7.53;;;;;;;16.48;58.66;96863.53;5050617;28;20469;-75
2022/04/30 09:43:28;;;;;;;9.07;8.17;;;;;;;16.69;55.96;96859.75;5035027;28;20474;-75
2022/04/30 09:46:04;;;;;;;10.00;8.00;;;;;;;16.54;55.24;96864.00;5051400;28;20515;-75
2022/04/30 09:54:01;;;;;;;7.00;6.50;;;;;;;16.99;54.01;96855.38;5041421;28;20461;-75
2022/04/30 09:56:39;;;;;;;11.53;8.70;;;;;;;16.54;54.75;96850.66;5039296;28;20444;-76
2022/04/30 09:59:11;;;;;;;8.03;6.60;;;;;;;16.74;55.00;96835.44;5034629;28;20441;-75
2022/04/30 10:01:43;;;;;;;9.30;6.20;;;;;;;16.68;54.38;96844.84;5035205;28;20480;-75
2022/04/30 10:04:13;;;;;;;9.23;6.60;;;;;;;16.74;53.41;96851.47;5035032;28;20454;-75
2022/04/30 10:06:50;;;;;;;7.03;6.43;;;;;;;17.03;52.02;96856.19;5021378;28;20524;-75
2022/04/30 10:09:27;;;;;;;7.80;7.10;;;;;;;16.64;51.96;96828.75;5052020;28;20794;-75
2022/04/30 10:11:56;;;;;;;6.60;5.87;;;;;;;17.04;50.24;96844.38;5034351;28;21034;-75
2022/04/30 10:14:34;;;;;;;6.20;5.57;;;;;;;17.05;49.96;96845.94;5034214;28;20448;-75
2022/04/30 10:17:17;;;;;;;8.57;7.30;;;;;;;16.74;51.46;96822.88;5033888;28;20441;-75
2022/04/30 10:19:55;;;;;;;8.90;5.60;;;;;;;16.49;49.63;96846.38;5050314;28;20469;-75
2022/04/30 10:22:22;;;;;;;7.03;6.33;;;;;;;16.11;48.54;96817.78;5049697;28;20499;-75
2022/04/30 10:24:50;;;;;;;7.30;6.00;;;;;;;16.15;48.40;96845.28;5034370;28;20437;-75
2022/04/30 10:27:17;;;;;;;6.40;5.27;;;;;;;16.09;48.78;96836.03;5034007;28;20468;-75
2022/04/30 10:29:55;;;;;;;5.07;4.67;;;;;;;16.18;46.79;96803.81;5014194;28;20528;-75
2022/04/30 10:32:27;;;;;;;4.87;4.47;;;;;;;16.81;47.88;96835.56;5032115;28;20535;-75
2022/04/30 10:34:55;;;;;;;6.97;6.37;;;;;;;16.52;50.91;96834.22;5033751;28;20524;-75
2022/04/30 10:37:36;;;;;;;7.50;6.90;;;;;;;16.76;51.21;96830.53;5017614;28;20971;-75
2022/04/30 10:40:08;;;;;;;6.73;6.07;;;;;;;17.24;49.38;96822.97;5033381;28;21004;-75
2022/04/30 10:42:44;;;;;;;6.67;5.87;;;;;;;16.74;48.21;96838.13;5033951;28;20861;-75
2022/04/30 10:45:15;;;;;;;4.83;4.43;;;;;;;16.87;47.87;96826.16;5033935;28;20850;-75
2022/04/30 10:47:52;;;;;;;6.57;5.20;;;;;;;16.44;49.64;96821.88;5033882;28;20479;-75
2022/04/30 10:50:19;;;;;;;7.57;5.27;;;;;;;16.28;47.79;96808.59;5033595;28;20464;-75
2022/04/30 10:52:49;;;;;;;6.50;5.90;;;;;;;16.16;48.77;96812.19;5033310;28;20432;-75
2022/04/30 10:55:17;;;;;;;6.47;5.90;;;;;;;16.20;48.48;96830.94;5050133;28;20485;-75
2022/04/30 10:57:45;;;;;;;6.63;6.13;;;;;;;16.08;48.25;96821.16;5050367;28;20462;-74
2022/04/30 11:00:13;;;;;;;6.60;5.87;;;;;;;16.12;49.01;96805.97;5033291;28;21002;-75
2022/04/30 11:02:47;;;;;;;5.83;5.30;;;;;;;16.24;49.33;96797.06;5033255;28;20475;-75
2022/04/30 11:05:19;;;;;;;9.30;6.63;;;;;;;16.40;47.92;96805.00;5051154;28;20424;-75
2022/04/30 11:07:47;;;;;;;6.47;5.87;;;;;;;17.08;46.71;96821.16;5051262;28;20429;-75
2022/04/30 11:10:13;;;;;;;9.63;6.30;;;;;;;17.22;44.46;96793.13;5033347;28;20511;-73
2022/04/30 11:12:41;;;;;;;4.97;4.57;;;;;;;17.38;42.37;96815.19;5051655;28;20877;-73
2022/04/30 11:15:14;;;;;;;9.53;7.10;;;;;;;17.20;42.50;96812.19;5033505;28;20544;-75
2022/04/30 11:17:47;;;;;;;50.27;25.77;;;;;;;17.16;44.93;96806.03;5033798;28;20985;-75
2022/04/30 11:20:24;;;;;;;7.23;6.20;;;;;;;17.24;43.74;96807.72;5051966;28;20457;-75
2022/04/30 11:22:55;;;;;;;9.40;6.20;;;;;;;17.48;43.98;96800.41;5043609;28;20499;-75
2022/04/30 11:25:31;;;;;;;7.70;5.17;;;;;;;17.38;44.82;96761.72;5050342;28;20448;-76
2022/04/30 11:27:58;;;;;;;7.20;6.50;;;;;;;16.65;45.80;96762.75;5033695;28;20437;-75
2022/04/30 11:30:25;;;;;;;5.90;5.50;;;;;;;16.94;45.03;96772.84;5033926;28;21023;-75
2022/04/30 11:32:52;;;;;;;5.77;5.33;;;;;;;16.96;45.26;96773.28;5052232;28;20460;-75
2022/04/30 11:35:19;;;;;;;8.07;5.50;;;;;;;16.89;44.68;96762.47;5057144;28;20456;-75
2022/04/30 11:37:45;;;;;;;10.23;6.17;;;;;;;16.77;45.68;96768.75;5055423;28;20430;-75
2022/04/30 11:40:12;;;;;;;6.30;5.70;;;;;;;17.07;45.90;96771.53;5036939;28;20541;-74
2022/04/30 11:42:39;;;;;;;6.73;6.13;;;;;;;17.08;45.40;96791.78;5055093;28;21007;-76
2022/04/30 11:45:06;;;;;;;6.43;5.90;;;;;;;16.59;46.12;96756.94;5036867;28;20453;-76
2022/04/30 11:47:33;;;;;;;5.93;5.43;;;;;;;16.53;48.25;96759.13;5037067;28;20430;-76
2022/04/30 11:50:06;;;;;;;6.63;5.93;;;;;;;16.54;48.18;96771.34;5036994;28;20552;-76
2022/04/30 11:52:33;;;;;;;7.20;6.43;;;;;;;16.53;47.94;96742.31;5036579;28;20463;-76
2022/04/30 11:55:02;;;;;;;6.30;5.70;;;;;;;16.90;47.91;96788.03;5037485;28;20537;-76
2022/04/30 11:57:30;;;;;;;5.47;4.97;;;;;;;17.14;47.71;96784.25;5054981;28;20503;-76
2022/04/30 11:59:57;;;;;;;7.97;5.73;;;;;;;17.07;48.36;96763.50;5053303;28;20525;-76
2022/04/30 12:02:28;;;;;;;6.30;5.70;;;;;;;17.40;47.33;96770.13;5036742;28;21083;-75
2022/04/30 12:05:01;;;;;;;6.73;6.13;;;;;;;17.35;47.75;96779.22;5053226;28;20441;-76
2022/04/30 12:07:39;;;;;;;6.87;6.23;;;;;;;17.09;46.95;96782.66;5052312;28;20437;-75
2022/04/30 12:10:17;;;;;;;6.73;6.23;;;;;;;17.07;46.47;96776.88;5038906;28;20457;-75